CheckWX is a tool to help pilots better visualize weather data.  It is not intended as a substitute for an official pre-flight weather briefing.

17:17:42 UTC

KIMM METAR
Immokalee Regional Airport
Immokalee, Florida, USA
Current

23 mins ago

KIMM 211655Z AUTO 15006G11KT 10SM CLR 34/21 A3005 RMK AO2
Observed
Jul-21 @ 16:55 UTC
Wind
  • 150° at 6 KTS
  • Gusting to 11 KTS
Visibility
10 SM
Flight Rules
VFR
Cloud Levels
  • Clear skies
Temperature
34°C / 93°F
Dewpoint
21°C / 70°F
Heat Index
37°C / 99°F
Humidity
47%
Altimeter
30.05" Hg
Pressure
1017.62 hPa
Previous

43 mins ago

KIMM 211635Z AUTO 15008KT 10SM CLR 34/21 A3005 RMK AO2
Observed
Jul-21 @ 16:35 UTC
Wind
  • 150° at 8 KTS
Visibility
10 SM
Flight Rules
VFR
Cloud Levels
  • Clear skies
Temperature
34°C / 93°F
Dewpoint
21°C / 70°F
Heat Index
37°C / 99°F
Humidity
47%
Altimeter
30.05" Hg
Pressure
1017.62 hPa
Previous

1 hour ago

KIMM 211615Z AUTO VRB03G12KT 10SM CLR 33/22 A3005 RMK AO2
Observed
Jul-21 @ 16:15 UTC
Wind
  • Variable at 3 KTS
  • Gusting to 12 KTS
Visibility
10 SM
Flight Rules
VFR
Cloud Levels
  • Clear skies
Temperature
33°C / 91°F
Dewpoint
22°C / 72°F
Heat Index
37°C / 98°F
Humidity
52%
Altimeter
30.05" Hg
Pressure
1017.62 hPa